Nearby METAR Reports

 

KMTN - Baltimore/Martin, Maryland, USA
Distance from station: SSE 8mi, 13km
Updated: Thu, 30-Oct-2014 6:50pm EDT
Overcast
Overcast
 Wind from calm
Wind: Calm
Temperature: 54°F , 12°C
Dew Point: 41°F , 5°C
Humidity: 63%
Barometer: 30.05 inHg , 1017.6 hPa
Clouds: Overcast
Visibility: 10 miles , 16 km
Cloud details: Overcast 6000 ft
2014/10/30 22:50 KMTN 302250Z 00000KT 10SM OVC060 12/05 A3005
KDMH - Baltimore/Dwntwn, Maryland, USA
Distance from station: SW 12mi, 19km
Updated: Thu, 30-Oct-2014 6:54pm EDT

 
Temperature: 55°F , 13°C
Dew Point: 36°F , 2°C
Humidity: 47%
Barometer: 30.04 inHg , 1017.3 hPa
2014/10/30 22:54 KDMH 302254Z AUTO 13/02 A3004 RMK AO1 SLP173 T01280017
 
KBWI - Balto/Wash Intl, Maryland, USA
Distance from station: SSW 20mi, 33km
Updated: Thu, 30-Oct-2014 6:54pm EDT
Partly cloudy
Partly cloudy
 Wind from NW
Wind: NW 3 mph , 6 km/h
Temperature: 52°F , 11°C
Dew Point: 37°F , 3°C
Humidity: 58%
Barometer: 30.04 inHg , 1017.3 hPa
Clouds: Partly cloudy
Visibility: 10 miles , 16 km
Cloud details: Few Clouds 5000 ft
Partly cloudy 6000 ft
2014/10/30 22:54 KBWI 302254Z 32003KT 10SM FEW050 SCT060 11/03 A3004 RMK AO2 SLP171 T01060028
KDMW - Carroll Cnty, Maryland, USA
Distance from station: WNW 30mi, 48km
Updated: Thu, 30-Oct-2014 7:15pm EDT
Overcast
Overcast
 Wind from WNW
Wind: WNW 5 mph , 7 km/h
Temperature: 50°F , 10°C
Wind Chill: 48°F , 9°C
Dew Point: 37°F , 3°C
Humidity: 62%
Barometer: 30.04 inHg , 1017.3 hPa
Clouds: Overcast
Visibility: 10 miles , 16 km
Cloud details: Overcast 5000 ft
2014/10/30 23:15 KDMW 302315Z AUTO 29004KT 10SM OVC050 10/03 A3004 RMK AO2
 
KNAK - Annapolis/Naval, Maryland, USA
Distance from station: S 30mi, 48km
Updated: Thu, 30-Oct-2014 6:54pm EDT
Overcast
Overcast
 Wind from WNW
Wind: WNW 3 mph , 6 km/h
Temperature: 54°F , 12°C
Dew Point: 39°F , 4°C
Humidity: 58%
Barometer: 30.04 inHg , 1017.3 hPa
Clouds: Overcast
Visibility: 10 miles , 16 km
Cloud details: Overcast 6500 ft
2014/10/30 22:54 KNAK 302254Z AUTO 30003KT 10SM OVC065 12/04 A3004 RMK AO2 SLP173 T01170044
KW29 - Stevensville, Maryland, USA
Distance from station: SSE 31mi, 50km
Updated: Thu, 30-Oct-2014 7:14pm EDT

 Wind from NNW
Wind: NNW 9 mph , 15 km/h
Temperature: 54°F , 12°C
Dew Point: 37°F , 3°C
Humidity: 54%
Barometer: 30.04 inHg , 1017.3 hPa
Visibility: 10 miles , 16 km
2014/10/30 23:14 KW29 302314Z AUTO 34008KT 10SM 12/03 A3004 RMK AO1
 
KCGS - College Park, Maryland, USA
Distance from station: SW 38mi, 61km
Updated: Thu, 30-Oct-2014 7:10pm EDT
Overcast
Overcast
 Wind from NNW
Wind: NNW 3 mph , 6 km/h
Temperature: 54°F , 12°C
Dew Point: 37°F , 3°C
Humidity: 54%
Barometer: 30.04 inHg , 1017.3 hPa
Clouds: Overcast
Visibility: 10 miles , 16 km
Cloud details: Overcast 5000 ft
2014/10/30 23:10 KCGS 302310Z AUTO 34003KT 10SM OVC050 12/03 A3004 RMK AO1
KGAI - Gaithersburg, Maryland, USA
Distance from station: WSW 40mi, 65km
Updated: Thu, 30-Oct-2014 7:15pm EDT
Overcast
Overcast
 Wind from NW
Wind: NW 5 mph , 7 km/h
Temperature: 50°F , 10°C
Wind Chill: 48°F , 9°C
Dew Point: 37°F , 3°C
Humidity: 62%
Barometer: 30.08 inHg , 1018.6 hPa
Clouds: Overcast
Visibility: 10 miles , 16 km
Cloud details: Overcast 5000 ft
2014/10/30 23:15 KGAI 302315Z 31004KT 10SM OVC050 10/03 A3008 RMK AO1
 
KTHV - York, Pennsylvania, USA
Distance from station: NNW 40mi, 65km
Updated: Thu, 30-Oct-2014 6:53pm EDT
Overcast
Overcast
 Wind from WNW
Wind: WNW 3 mph , 6 km/h
Temperature: 48°F , 9°C
Dew Point: 39°F , 4°C
Humidity: 71%
Barometer: 30.04 inHg , 1017.3 hPa
Clouds: Overcast
Visibility: 10 miles , 16 km
Cloud details: Overcast 5000 ft
2014/10/30 22:53 KTHV 302253Z AUTO 30003KT 10SM OVC050 09/04 A3004 RMK AO2 SLP175 T00890039
KFDK - Frederick, Maryland, USA
Distance from station: W 47mi, 75km
Updated: Thu, 30-Oct-2014 6:45pm EDT
Overcast
Overcast
 Wind from NNW
Wind: NNW 5 mph , 7 km/h
Temperature: 55°F , 13°C
Dew Point: 37°F , 3°C
Humidity: 51%
Barometer: 30.07 inHg , 1018.3 hPa
Clouds: Overcast
Visibility: 10 miles , 16 km
Cloud details: Overcast 5500 ft
2014/10/30 22:45 KFDK 302245Z 33004KT 10SM OVC055 13/03 A3007
 
KESN - Easton/Newnam, Maryland, USA
Distance from station: SSE 48mi, 78km
Updated: Thu, 30-Oct-2014 6:50pm EDT
Overcast
Overcast
 Wind from NNW
Wind: NNW 9 mph , 15 km/h
Temperature: 55°F , 13°C
Dew Point: 41°F , 5°C
Humidity: 59%
Barometer: 30.07 inHg , 1018.3 hPa
Clouds: Overcast
Visibility: 10 miles , 16 km
Cloud details: Overcast 6000 ft
2014/10/30 22:50 KESN 302250Z 34008KT 10SM OVC060 13/05 A3007
KDCA - Washington/Natl, Washington D.c., USA
Distance from station: SW 49mi, 79km
Updated: Thu, 30-Oct-2014 6:52pm EDT
Mostly cloudy
Mostly cloudy
 Wind from NNW
Wind: NNW 7 mph , 11 km/h
Temperature: 55°F , 13°C
Dew Point: 37°F , 3°C
Humidity: 51%
Barometer: 30.05 inHg , 1017.6 hPa
Clouds: Mostly cloudy
Visibility: 10 miles , 16 km
Cloud details: Partly cloudy 5000 ft
Mostly cloudy 6000 ft
2014/10/30 22:52 KDCA 302252Z 33006KT 10SM SCT050 BKN060 13/03 A3005 RMK AO2 SLP176 T01330028
 
KLNS - Lancaster, Pennsylvania, USA
Distance from station: N 49mi, 79km
Updated: Thu, 30-Oct-2014 6:53pm EDT
Mostly cloudy
Mostly cloudy
 Wind from NNW
Wind: NNW 5 mph , 7 km/h
Temperature: 48°F , 9°C
Wind Chill: 46°F , 8°C
Dew Point: 36°F , 2°C
Humidity: 62%
Barometer: 30.03 inHg , 1016.9 hPa
Clouds: Mostly cloudy
Visibility: 10 miles , 16 km
Cloud details: Mostly cloudy 5000 ft
2014/10/30 22:53 KLNS 302253Z 33004KT 10SM BKN050 09/02 A3003 RMK AO2 SLP171 T00940022 $
KILG - Wilmington, Delaware, USA
Distance from station: ENE 50mi, 81km
Updated: Thu, 30-Oct-2014 6:51pm EDT
Clear
Clear
 Wind from NW
Wind: NW 6 mph , 9 km/h
Temperature: 50°F , 10°C
Wind Chill: 48°F , 9°C
Dew Point: 37°F , 3°C
Humidity: 62%
Barometer: 30.03 inHg , 1016.9 hPa
Clouds: Clear
Visibility: 10 miles , 16 km
2014/10/30 22:51 KILG 302251Z AUTO 31005KT 10SM CLR 10/03 A3003 RMK AO2 SLP168 T01000028